Yevpatoriya, Ukraine
Current Conditions -  °F | °C
As of 4:30 PM on Friday 19 Dec 2014 (Local Time) from URFF Reporting Station
Overcast Overcast  
Wind Chill: 35°   Ceiling: 1600
Heat Index: 41°   Visibility: 6mi
Dew Point: 34°   Wind: 9mph
Humidity: 76%   Direction: 260°W
Pressure: 30.12"   Gusts: NA
Location:  45.2°N, 33.36°E
Report Text: URFF 191330Z 26004MPS 230V300 9999 OVC016 05/01 Q1020 19190060NOSIG
Loading
Personal Weather Stations






























Interactive Weather Map New forecast layout! Learn more

10-Day Weather Forecast

Advertisements
Track Severe Weather on mobile